createdAt,value
2019-05-17T00:00:48.638Z,63.04
2019-05-17T00:03:52.380Z,63.11
2019-05-17T00:06:56.863Z,63.39
2019-05-17T00:09:58.277Z,63.51
2019-05-17T00:13:00.442Z,63.69
2019-05-17T00:16:02.629Z,63.92
2019-05-17T00:19:04.554Z,63.87
2019-05-17T00:22:07.379Z,63.71
2019-05-17T00:25:10.065Z,63.48
2019-05-17T00:28:13.308Z,63.21
2019-05-17T00:31:17.198Z,63.11
2019-05-17T00:34:19.139Z,63.00
2019-05-17T00:37:26.317Z,63.03
2019-05-17T00:40:27.800Z,62.86
2019-05-17T00:43:29.738Z,62.71
2019-05-17T00:46:31.646Z,63.04
2019-05-17T00:49:34.221Z,63.30
2019-05-17T00:52:36.881Z,63.09
2019-05-17T00:55:39.149Z,63.10
2019-05-17T00:58:41.152Z,62.93
2019-05-17T01:01:43.104Z,62.78
2019-05-17T01:04:47.883Z,62.72
2019-05-17T01:07:49.746Z,62.65
2019-05-17T01:10:51.668Z,62.57
2019-05-17T01:13:55.897Z,62.60
2019-05-17T01:16:57.393Z,62.62
2019-05-17T01:19:59.347Z,62.60
2019-05-17T01:23:01.267Z,62.90
2019-05-17T01:26:03.983Z,63.14
2019-05-17T01:29:06.738Z,63.07
2019-05-17T01:32:09.257Z,62.97
2019-05-17T01:35:11.269Z,62.72
2019-05-17T01:38:13.148Z,62.93
2019-05-17T01:41:17.186Z,63.18
2019-05-17T01:44:18.925Z,63.16
2019-05-17T01:47:20.992Z,63.11
2019-05-17T01:50:22.999Z,63.29
2019-05-17T01:53:26.898Z,63.25
2019-05-17T01:56:28.751Z,63.35
2019-05-17T01:59:32.054Z,63.28
2019-05-17T02:02:37.218Z,63.12
2019-05-17T02:05:39.170Z,63.18
2019-05-17T02:08:41.132Z,63.11
2019-05-17T02:11:43.159Z,63.08
2019-05-17T02:14:46.781Z,62.98
2019-05-17T02:17:48.984Z,62.94
2019-05-17T02:20:51.271Z,62.94
2019-05-17T02:23:53.248Z,63.03
2019-05-17T02:26:57.019Z,62.87
2019-05-17T02:30:02.196Z,62.66
2019-05-17T02:33:04.063Z,62.86
2019-05-17T02:36:06.453Z,62.89
2019-05-17T02:39:08.366Z,62.75
2019-05-17T02:42:13.615Z,62.73
2019-05-17T02:45:14.975Z,62.93
2019-05-17T02:48:16.916Z,63.42
2019-05-17T02:51:19.571Z,63.66
2019-05-17T02:54:23.520Z,63.62
2019-05-17T02:57:25.348Z,63.67
2019-05-17T03:00:27.257Z,63.83
2019-05-17T03:03:29.205Z,63.81
2019-05-17T03:06:32.948Z,63.77
2019-05-17T03:09:35.179Z,63.72
2019-05-17T03:12:37.119Z,63.87
2019-05-17T03:15:39.065Z,63.95
2019-05-17T03:18:43.893Z,63.92
2019-05-17T03:21:45.957Z,63.91
2019-05-17T03:24:49.104Z,63.54
2019-05-17T03:27:53.601Z,63.10
2019-05-17T03:30:56.679Z,62.75
2019-05-17T03:33:59.561Z,62.74
2019-05-17T03:37:06.444Z,63.02
2019-05-17T03:40:23.724Z,63.09
2019-05-17T03:43:09.438Z,63.12
2019-05-17T03:46:13.908Z,63.00
2019-05-17T03:49:15.273Z,62.84
2019-05-17T03:52:17.182Z,62.77
2019-05-17T03:55:19.202Z,62.86
2019-05-17T03:58:23.486Z,62.75
2019-05-17T04:01:25.038Z,62.96
2019-05-17T04:04:26.987Z,62.80
2019-05-17T04:07:29.046Z,62.33
2019-05-17T04:10:33.422Z,61.96
2019-05-17T04:13:34.952Z,61.48
2019-05-17T04:16:36.923Z,61.40
2019-05-17T04:19:38.853Z,61.20
2019-05-17T04:22:44.159Z,59.69
2019-05-17T04:25:44.636Z,58.96
2019-05-17T04:28:46.529Z,59.11
2019-05-17T04:31:48.595Z,59.44
2019-05-17T04:34:52.578Z,59.71
2019-05-17T04:37:54.423Z,59.54
2019-05-17T04:40:56.334Z,59.26
2019-05-17T04:43:58.304Z,59.05
2019-05-17T04:47:03.069Z,57.74
2019-05-17T04:50:04.913Z,57.47
2019-05-17T04:53:06.957Z,57.59
2019-05-17T04:56:08.989Z,57.18
2019-05-17T04:59:13.895Z,56.67
2019-05-17T05:02:14.905Z,56.34
2019-05-17T05:05:17.043Z,56.18
2019-05-17T05:08:22.233Z,56.14
2019-05-17T05:11:23.457Z,56.19
2019-05-17T05:14:25.645Z,56.06
2019-05-17T05:17:27.683Z,55.97
2019-05-17T05:20:32.420Z,55.87
2019-05-17T05:23:33.434Z,55.83
2019-05-17T05:26:35.471Z,55.94
2019-05-17T05:29:37.312Z,55.73
2019-05-17T05:32:39.302Z,55.66
2019-05-17T05:35:42.474Z,55.16
2019-05-17T05:38:44.813Z,54.86
2019-05-17T05:41:46.745Z,54.74
2019-05-17T05:44:48.682Z,54.99
2019-05-17T05:47:52.161Z,55.20
2019-05-17T05:50:54.467Z,55.07
2019-05-17T05:53:56.425Z,54.40
2019-05-17T05:56:58.468Z,54.13
2019-05-17T06:00:02.223Z,53.91
2019-05-17T06:03:05.350Z,54.15
2019-05-17T06:06:07.285Z,54.16
2019-05-17T06:09:11.811Z,53.84
2019-05-17T06:12:22.917Z,53.93
2019-05-17T06:15:17.190Z,54.15
2019-05-17T06:18:22.483Z,54.40
2019-05-17T06:21:24.274Z,54.17
2019-05-17T06:24:26.253Z,53.66
2019-05-17T06:27:28.233Z,53.27
2019-05-17T06:30:32.407Z,52.86
2019-05-17T06:33:34.976Z,52.73
2019-05-17T06:36:38.426Z,52.52
2019-05-17T06:39:41.922Z,52.62
2019-05-17T06:42:45.548Z,52.42
2019-05-17T06:45:47.936Z,52.23
2019-05-17T06:48:49.971Z,51.74
2019-05-17T06:51:51.936Z,51.40
2019-05-17T06:54:53.946Z,50.83
2019-05-17T06:57:55.921Z,50.12
2019-05-17T07:00:59.871Z,50.21
2019-05-17T07:04:01.727Z,50.35
2019-05-17T07:07:22.410Z,50.42
2019-05-17T07:10:24.296Z,50.20
2019-05-17T07:13:26.279Z,50.15
2019-05-17T07:16:30.071Z,50.16
2019-05-17T07:19:32.170Z,49.25
2019-05-17T07:22:36.965Z,47.99
2019-05-17T07:25:39.673Z,47.18
2019-05-17T07:28:42.002Z,46.35
2019-05-17T07:31:44.044Z,44.93
2019-05-17T07:34:46.035Z,44.41
2019-05-17T07:37:50.125Z,43.48
2019-05-17T07:40:51.887Z,43.79
2019-05-17T07:43:53.847Z,43.04
2019-05-17T07:46:55.848Z,42.36
2019-05-17T07:50:00.696Z,42.48
2019-05-17T07:53:01.663Z,41.76
2019-05-17T07:56:04.760Z,41.19
2019-05-17T07:59:06.726Z,40.43
2019-05-17T08:02:10.611Z,40.35
2019-05-17T08:05:12.710Z,39.34
2019-05-17T08:08:14.647Z,38.34
2019-05-17T08:11:16.587Z,37.02
2019-05-17T08:14:29.346Z,35.55
2019-05-17T08:17:22.553Z,36.97
2019-05-17T08:20:24.513Z,38.00
2019-05-17T08:23:26.528Z,38.17
2019-05-17T08:26:29.623Z,38.87
2019-05-17T08:29:31.927Z,38.96
2019-05-17T08:32:33.857Z,37.96
2019-05-17T08:35:35.930Z,36.38
2019-05-17T08:38:39.344Z,36.25
2019-05-17T08:41:41.442Z,36.26
2019-05-17T08:44:43.386Z,37.07
2019-05-17T08:47:45.378Z,37.34
2019-05-17T08:50:49.497Z,37.63
2019-05-17T08:53:51.389Z,38.01
2019-05-17T08:56:53.299Z,38.40
2019-05-17T08:59:55.318Z,38.51
2019-05-17T09:02:57.219Z,38.65
2019-05-17T09:06:02.126Z,38.27
2019-05-17T09:09:05.669Z,38.33
2019-05-17T09:12:11.030Z,38.92
2019-05-17T09:15:13.430Z,38.21
2019-05-17T09:18:15.367Z,36.90
2019-05-17T09:21:17.599Z,36.69
2019-05-17T09:24:20.647Z,36.36
2019-05-17T09:27:22.632Z,36.18
2019-05-17T09:30:25.697Z,36.32
2019-05-17T09:33:29.989Z,35.67
2019-05-17T09:36:32.176Z,34.52
2019-05-17T09:39:34.156Z,34.03
2019-05-17T09:42:36.059Z,35.12
2019-05-17T09:45:40.464Z,36.07
2019-05-17T09:48:42.393Z,36.80
2019-05-17T09:51:44.399Z,37.51
2019-05-17T09:54:46.322Z,37.32
2019-05-17T09:57:49.651Z,36.85
2019-05-17T10:00:51.869Z,37.26
2019-05-17T10:03:53.980Z,37.74
2019-05-17T10:06:56.035Z,39.40
2019-05-17T10:09:59.709Z,40.52
2019-05-17T10:13:01.834Z,41.96
2019-05-17T10:16:03.920Z,41.71
2019-05-17T10:19:05.834Z,42.26
2019-05-17T10:22:10.192Z,43.30
2019-05-17T10:25:11.731Z,42.56
2019-05-17T10:28:13.694Z,42.69
2019-05-17T10:31:15.613Z,41.97
2019-05-17T10:34:20.195Z,41.72
2019-05-17T10:37:21.481Z,42.30
2019-05-17T10:40:23.588Z,41.61
2019-05-17T10:43:25.507Z,40.04
2019-05-17T10:46:29.824Z,39.62
2019-05-17T10:49:31.348Z,40.29
2019-05-17T10:52:33.406Z,39.93
2019-05-17T10:55:35.355Z,40.31
2019-05-17T10:58:39.748Z,40.79
2019-05-17T11:01:41.164Z,40.29
2019-05-17T11:04:43.170Z,40.45
2019-05-17T11:07:45.145Z,40.85
2019-05-17T11:10:47.098Z,41.50
2019-05-17T11:13:49.094Z,41.37
2019-05-17T11:16:51.051Z,42.77
2019-05-17T11:19:52.967Z,42.77
2019-05-17T11:22:54.919Z,42.71
2019-05-17T11:25:56.882Z,43.44
2019-05-17T11:28:58.889Z,44.48
2019-05-17T11:32:00.962Z,43.66
2019-05-17T11:35:04.821Z,42.81
2019-05-17T11:38:06.991Z,43.83
2019-05-17T11:41:20.339Z,44.33
2019-05-17T11:44:13.331Z,44.22
2019-05-17T11:47:15.324Z,43.96
2019-05-17T11:50:17.717Z,45.71
2019-05-17T11:53:19.811Z,46.46
2019-05-17T11:56:21.750Z,46.55
2019-05-17T11:59:23.714Z,46.55
2019-05-17T12:02:25.633Z,48.17
2019-05-17T12:05:27.647Z,47.78
2019-05-17T12:08:29.585Z,48.84
2019-05-17T12:11:31.507Z,48.84
2019-05-17T12:14:33.453Z,48.90
2019-05-17T12:17:35.385Z,47.83
2019-05-17T12:20:37.360Z,48.92
2019-05-17T12:23:39.314Z,47.85
2019-05-17T12:26:41.281Z,46.91
2019-05-17T12:29:43.247Z,48.45
2019-05-17T12:32:45.210Z,47.87
2019-05-17T12:35:47.223Z,48.11
2019-05-17T12:38:49.253Z,48.27
2019-05-17T12:41:51.243Z,48.70
2019-05-17T12:44:53.254Z,48.54
2019-05-17T12:47:55.242Z,48.75
2019-05-17T12:50:57.144Z,49.10
2019-05-17T12:53:59.253Z,49.46
2019-05-17T12:57:04.357Z,48.61
2019-05-17T13:00:07.439Z,48.83
2019-05-17T13:03:09.804Z,49.90
2019-05-17T13:06:12.980Z,49.21
2019-05-17T13:09:14.904Z,49.42
2019-05-17T13:12:16.946Z,49.06
2019-05-17T13:15:20.235Z,48.98
2019-05-17T13:18:23.305Z,49.67
2019-05-17T13:21:25.294Z,48.39
2019-05-17T13:24:30.349Z,48.79
2019-05-17T13:27:32.325Z,48.57
2019-05-17T13:30:34.348Z,47.94
2019-05-17T13:33:36.374Z,48.26
2019-05-17T13:36:40.011Z,48.68
2019-05-17T13:39:42.157Z,50.31
2019-05-17T13:42:44.194Z,50.59
2019-05-17T13:45:47.809Z,50.34
2019-05-17T13:48:50.168Z,49.19
2019-05-17T13:51:52.131Z,48.94
2019-05-17T13:54:54.144Z,50.17
2019-05-17T13:57:56.107Z,50.26
2019-05-17T14:00:58.087Z,50.78
2019-05-17T14:04:00.068Z,50.66
2019-05-17T14:07:02.485Z,50.28
2019-05-17T14:10:05.422Z,52.05
2019-05-17T14:13:07.427Z,51.86
2019-05-17T14:16:09.395Z,51.44
2019-05-17T14:19:11.363Z,51.60
2019-05-17T14:22:13.415Z,51.30
2019-05-17T14:25:15.870Z,50.83
2019-05-17T14:28:19.278Z,50.56
2019-05-17T14:31:21.252Z,51.17
2019-05-17T14:34:23.270Z,51.54
2019-05-17T14:37:26.600Z,51.75
2019-05-17T14:41:00.384Z,52.54
2019-05-17T14:43:32.852Z,52.38
2019-05-17T14:46:34.911Z,52.74
2019-05-17T14:49:36.874Z,52.72
2019-05-17T14:52:38.925Z,52.42
2019-05-17T14:55:40.920Z,51.60
2019-05-17T14:58:42.931Z,52.44
2019-05-17T15:01:44.938Z,52.66
2019-05-17T15:04:46.893Z,52.23
2019-05-17T15:07:48.826Z,52.41
2019-05-17T15:10:52.066Z,51.21
2019-05-17T15:13:54.165Z,50.97
2019-05-17T15:16:56.938Z,52.05
2019-05-17T15:19:58.933Z,53.31
2019-05-17T15:23:00.884Z,52.64
2019-05-17T15:26:03.308Z,52.23
2019-05-17T15:29:05.325Z,52.47
2019-05-17T15:32:07.314Z,50.32
2019-05-17T15:35:09.285Z,51.10
2019-05-17T15:38:12.162Z,51.59
2019-05-17T15:41:14.143Z,50.80
2019-05-17T15:44:16.122Z,49.75
2019-05-17T15:47:18.208Z,49.62
2019-05-17T15:50:20.357Z,49.30
2019-05-17T15:53:23.492Z,50.18
2019-05-17T15:56:26.071Z,50.61
2019-05-17T15:59:29.834Z,50.79
2019-05-17T16:02:32.280Z,49.80
2019-05-17T16:05:34.289Z,49.92
2019-05-17T16:08:36.304Z,50.01
2019-05-17T16:11:38.269Z,49.99
2019-05-17T16:14:40.146Z,49.45
2019-05-17T16:17:42.126Z,50.59
2019-05-17T16:20:44.141Z,50.75
2019-05-17T16:23:46.191Z,49.83
2019-05-17T16:26:48.157Z,50.41
2019-05-17T16:29:50.079Z,49.29
2019-05-17T16:32:52.167Z,50.35
2019-05-17T16:35:54.103Z,49.85
2019-05-17T16:38:56.086Z,50.01
2019-05-17T16:41:58.136Z,51.66
2019-05-17T16:45:02.069Z,51.61
2019-05-17T16:48:04.206Z,52.23
2019-05-17T16:51:06.166Z,51.86
2019-05-17T16:54:08.077Z,51.24
2019-05-17T16:57:12.635Z,51.70
2019-05-17T17:00:27.195Z,51.54
2019-05-17T17:03:43.289Z,51.33
2019-05-17T17:06:34.759Z,51.40
2019-05-17T17:09:36.737Z,51.38
2019-05-17T17:12:38.758Z,51.49
2019-05-17T17:15:40.716Z,51.10
2019-05-17T17:18:42.623Z,50.48
2019-05-17T17:21:44.634Z,50.80
2019-05-17T17:24:46.630Z,51.23
2019-05-17T17:27:48.673Z,51.77
2019-05-17T17:30:50.637Z,52.36
2019-05-17T17:33:52.631Z,52.62
2019-05-17T17:36:55.836Z,52.81
2019-05-17T17:39:57.826Z,52.69
2019-05-17T17:43:00.055Z,53.34
2019-05-17T17:46:02.045Z,53.56
2019-05-17T17:49:05.112Z,53.65
2019-05-17T17:52:07.288Z,54.04
2019-05-17T17:55:09.370Z,54.53
2019-05-17T17:58:11.641Z,54.93
2019-05-17T18:01:13.629Z,55.40
2019-05-17T18:04:15.765Z,55.47
2019-05-17T18:07:17.725Z,55.13
2019-05-17T18:10:27.554Z,54.29
2019-05-17T18:13:30.199Z,54.13
2019-05-17T18:16:32.156Z,54.19
2019-05-17T18:19:34.152Z,53.82
2019-05-17T18:22:36.107Z,53.65
2019-05-17T18:25:38.511Z,53.38
2019-05-17T18:28:40.499Z,53.42
2019-05-17T18:31:42.484Z,53.29
2019-05-17T18:34:44.403Z,53.19
2019-05-17T18:37:46.521Z,53.21
2019-05-17T18:40:48.551Z,53.20
2019-05-17T18:43:54.385Z,53.23
2019-05-17T18:46:56.429Z,53.25
2019-05-17T18:49:58.415Z,53.37
2019-05-17T18:53:00.937Z,53.52
2019-05-17T18:56:03.002Z,53.69
2019-05-17T18:59:05.374Z,53.74
2019-05-17T19:02:07.369Z,53.60
2019-05-17T19:05:11.862Z,53.63
2019-05-17T19:08:14.034Z,53.66
2019-05-17T19:11:16.473Z,53.48
2019-05-17T19:14:18.438Z,53.59
2019-05-17T19:17:20.438Z,53.73
2019-05-17T19:20:23.799Z,55.43
2019-05-17T19:23:26.145Z,56.08
2019-05-17T19:26:28.172Z,56.06
2019-05-17T19:29:30.218Z,55.94
2019-05-17T19:32:32.254Z,56.00
2019-05-17T19:35:34.273Z,56.09
2019-05-17T19:38:36.252Z,56.58
2019-05-17T19:41:39.524Z,56.73
2019-05-17T19:44:41.572Z,56.77
2019-05-17T19:47:43.654Z,56.72
2019-05-17T19:50:45.599Z,56.71
2019-05-17T19:53:47.671Z,56.86
2019-05-17T19:56:51.472Z,56.74
2019-05-17T19:59:53.440Z,56.63
2019-05-17T20:02:56.987Z,56.67
2019-05-17T20:06:01.266Z,56.77
2019-05-17T20:09:04.981Z,56.80
2019-05-17T20:12:06.972Z,57.26
2019-05-17T20:15:17.302Z,57.41
2019-05-17T20:18:15.657Z,57.89
2019-05-17T20:21:17.662Z,58.02
2019-05-17T20:24:19.659Z,58.63
2019-05-17T20:27:21.667Z,59.29
2019-05-17T20:30:25.414Z,59.67
2019-05-17T20:33:28.287Z,60.00
2019-05-17T20:36:30.777Z,60.66
2019-05-17T20:39:32.747Z,60.48
2019-05-17T20:42:35.089Z,60.25
2019-05-17T20:45:37.201Z,60.92
2019-05-17T20:48:39.229Z,61.06
2019-05-17T20:51:41.281Z,61.01
2019-05-17T20:54:43.256Z,60.86
2019-05-17T20:57:45.223Z,60.73
2019-05-17T21:00:48.997Z,60.83
2019-05-17T21:03:50.929Z,60.64
2019-05-17T21:06:52.873Z,60.35
2019-05-17T21:09:55.569Z,60.30
2019-05-17T21:12:57.439Z,60.38
2019-05-17T21:15:59.438Z,60.74
2019-05-17T21:19:02.185Z,61.00
2019-05-17T21:22:04.178Z,60.86
2019-05-17T21:25:06.675Z,60.79
2019-05-17T21:28:08.577Z,61.17
2019-05-17T21:31:10.509Z,61.47
2019-05-17T21:34:12.472Z,61.54
2019-05-17T21:37:14.965Z,61.76
2019-05-17T21:40:17.111Z,61.91
2019-05-17T21:43:19.043Z,62.22
2019-05-17T21:46:21.093Z,62.41
2019-05-17T21:49:22.973Z,62.20
2019-05-17T21:52:24.950Z,62.10
2019-05-17T21:55:26.915Z,61.99
2019-05-17T21:58:28.885Z,61.67
2019-05-17T22:01:32.761Z,61.65
2019-05-17T22:04:34.721Z,62.70
2019-05-17T22:07:36.791Z,63.19
2019-05-17T22:10:38.704Z,63.52
2019-05-17T22:13:40.635Z,63.69
2019-05-17T22:16:42.631Z,64.03
2019-05-17T22:19:44.558Z,63.80
2019-05-17T22:22:46.698Z,64.36
2019-05-17T22:25:48.657Z,64.68
2019-05-17T22:28:50.675Z,64.95
2019-05-17T22:31:52.579Z,65.36
2019-05-17T22:34:54.558Z,65.87
2019-05-17T22:37:56.519Z,66.12
2019-05-17T22:40:58.509Z,66.27
2019-05-17T22:44:00.471Z,66.40
2019-05-17T22:47:02.593Z,66.37
2019-05-17T22:50:05.012Z,66.26
2019-05-17T22:53:06.983Z,66.20
2019-05-17T22:56:08.902Z,66.15
2019-05-17T22:59:10.928Z,66.06
2019-05-17T23:02:12.915Z,66.55
2019-05-17T23:05:14.863Z,66.72
2019-05-17T23:08:16.889Z,66.16
2019-05-17T23:11:18.835Z,65.75
2019-05-17T23:14:20.837Z,65.81
2019-05-17T23:17:22.741Z,65.49
2019-05-17T23:20:24.668Z,65.52
2019-05-17T23:23:26.718Z,65.61
2019-05-17T23:26:28.649Z,65.43
2019-05-17T23:29:30.573Z,65.02
2019-05-17T23:32:32.504Z,64.75
2019-05-17T23:35:34.463Z,64.27
2019-05-17T23:38:36.381Z,63.87
2019-05-17T23:41:38.349Z,63.58
2019-05-17T23:44:40.301Z,63.98
2019-05-17T23:47:42.269Z,63.85
2019-05-17T23:50:44.237Z,64.03
2019-05-17T23:53:46.214Z,64.73
2019-05-17T23:56:48.183Z,65.39
2019-05-17T23:59:50.088Z,65.96
